createdAt,value
2022-10-02T00:06:31.546Z,12.40
2022-10-02T00:13:38.875Z,12.50
2022-10-02T00:21:12.581Z,12.50
2022-10-02T00:28:22.490Z,12.50
2022-10-02T00:35:31.032Z,12.60
2022-10-02T00:43:06.228Z,12.60
2022-10-02T00:50:51.144Z,12.60
2022-10-02T00:57:56.825Z,12.60
2022-10-02T01:05:03.384Z,12.70
2022-10-02T01:12:04.757Z,12.70
2022-10-02T01:19:08.248Z,12.80
2022-10-02T01:26:08.418Z,12.80
2022-10-02T01:33:10.635Z,12.90
2022-10-02T01:40:24.796Z,13.00
2022-10-02T01:47:44.139Z,13.00
2022-10-02T01:55:00.509Z,13.10
2022-10-02T02:02:34.016Z,13.20
2022-10-02T02:09:41.947Z,13.30
2022-10-02T02:16:51.995Z,13.30
2022-10-02T02:23:54.709Z,13.40
2022-10-02T02:30:57.351Z,13.40
2022-10-02T02:38:05.304Z,13.40
2022-10-02T02:45:31.685Z,13.50
2022-10-02T02:53:01.932Z,13.50
2022-10-02T03:00:04.792Z,13.50
2022-10-02T03:07:05.911Z,13.50
2022-10-02T03:14:28.365Z,13.50
2022-10-02T03:21:46.568Z,13.60
2022-10-02T03:28:57.502Z,13.60
2022-10-02T03:35:58.397Z,13.60
2022-10-02T03:42:58.959Z,13.70
2022-10-02T03:49:59.131Z,13.70
2022-10-02T03:57:04.953Z,13.70
2022-10-02T04:04:17.600Z,13.80
2022-10-02T04:11:48.089Z,13.90
2022-10-02T04:19:25.274Z,13.90
2022-10-02T04:26:30.651Z,14.00
2022-10-02T04:33:36.384Z,14.00
2022-10-02T04:40:55.661Z,14.00
2022-10-02T04:48:10.355Z,14.00
2022-10-02T04:55:37.506Z,13.90
2022-10-02T05:03:10.141Z,13.80
2022-10-02T05:10:38.255Z,13.70
2022-10-02T05:17:59.483Z,13.80
2022-10-02T05:25:08.462Z,13.70
2022-10-02T05:32:20.662Z,13.70
2022-10-02T05:39:27.620Z,13.70
2022-10-02T05:46:34.238Z,13.70
2022-10-02T05:53:44.266Z,13.80
2022-10-02T06:00:52.017Z,13.80
2022-10-02T06:07:57.218Z,13.90
2022-10-02T06:15:07.287Z,13.90
2022-10-02T06:22:20.876Z,14.00
2022-10-02T06:29:27.771Z,14.20
2022-10-02T06:36:53.594Z,14.20
2022-10-02T06:44:13.087Z,14.20
2022-10-02T06:51:22.019Z,14.20
2022-10-02T06:58:55.202Z,14.20
2022-10-02T07:06:07.743Z,14.30
2022-10-02T07:13:17.708Z,14.30
2022-10-02T07:21:05.469Z,14.30
2022-10-02T07:28:16.808Z,14.40
2022-10-02T07:35:40.602Z,14.40
2022-10-02T07:43:04.840Z,14.40
2022-10-02T07:50:29.191Z,14.50
2022-10-02T07:57:52.314Z,14.50
2022-10-02T08:04:59.029Z,14.60
2022-10-02T08:12:06.237Z,14.60
2022-10-02T08:19:13.604Z,14.50
2022-10-02T08:26:48.991Z,14.60
2022-10-02T08:33:49.648Z,14.60
2022-10-02T08:41:36.884Z,14.60
2022-10-02T08:48:55.248Z,14.60
2022-10-02T08:56:21.849Z,14.60
2022-10-02T09:03:37.100Z,14.70
2022-10-02T09:11:04.366Z,14.90
2022-10-02T09:18:52.112Z,15.10
2022-10-02T09:26:45.425Z,15.10
2022-10-02T09:34:06.566Z,14.90
2022-10-02T09:41:41.462Z,14.90
2022-10-02T09:48:50.892Z,14.90
2022-10-02T09:55:51.137Z,14.90
2022-10-02T10:03:19.290Z,14.90
2022-10-02T10:11:01.773Z,14.90
2022-10-02T10:18:26.564Z,15.00
2022-10-02T10:26:06.637Z,15.10
2022-10-02T10:33:44.620Z,15.20
2022-10-02T10:40:50.600Z,15.40
2022-10-02T10:48:38.397Z,15.60
2022-10-02T10:56:19.283Z,15.80
2022-10-02T11:03:37.802Z,15.80
2022-10-02T11:10:47.907Z,16.00
2022-10-02T11:18:49.987Z,16.00
2022-10-02T11:26:02.456Z,16.00
2022-10-02T11:33:33.569Z,16.00
2022-10-02T11:40:42.081Z,15.90
2022-10-02T11:48:00.221Z,16.10
2022-10-02T11:55:22.279Z,16.50
2022-10-02T12:03:01.619Z,16.60
2022-10-02T12:10:24.402Z,16.50
2022-10-02T12:17:44.867Z,16.60
2022-10-02T12:25:33.236Z,16.70
2022-10-02T12:32:55.729Z,16.60
2022-10-02T12:40:08.068Z,16.60
2022-10-02T12:47:32.059Z,16.60
2022-10-02T12:54:57.013Z,16.50
2022-10-02T13:02:59.133Z,16.50
2022-10-02T13:10:24.872Z,16.40
2022-10-02T13:17:46.136Z,16.60
2022-10-02T13:25:01.749Z,17.20
2022-10-02T13:32:26.390Z,17.60
2022-10-02T13:39:46.775Z,17.70
2022-10-02T13:46:55.993Z,17.90
2022-10-02T13:54:22.431Z,17.80
2022-10-02T14:02:13.600Z,17.60
2022-10-02T14:09:41.262Z,17.50
2022-10-02T14:16:59.544Z,17.50
2022-10-02T14:24:21.496Z,17.40
2022-10-02T14:31:27.474Z,17.30
2022-10-02T14:39:15.211Z,17.30
2022-10-02T14:46:36.017Z,17.30
2022-10-02T14:54:11.753Z,17.30
2022-10-02T15:01:14.885Z,17.20
2022-10-02T15:08:26.314Z,17.90
2022-10-02T15:15:41.058Z,17.50
2022-10-02T15:22:57.143Z,17.50
2022-10-02T15:30:23.361Z,17.80
2022-10-02T15:37:42.462Z,17.80
2022-10-02T15:45:07.505Z,17.60
2022-10-02T15:52:16.121Z,17.80
2022-10-02T15:59:51.509Z,17.40
2022-10-02T16:07:09.796Z,17.00
2022-10-02T16:14:30.324Z,16.80
2022-10-02T16:21:45.347Z,16.60
2022-10-02T16:29:14.237Z,16.70
2022-10-02T16:37:12.842Z,16.60
2022-10-02T16:44:49.262Z,16.40
2022-10-02T16:51:55.625Z,16.20
2022-10-02T16:59:15.809Z,16.10
2022-10-02T17:06:19.188Z,15.90
2022-10-02T17:13:44.341Z,15.80
2022-10-02T17:20:51.190Z,15.60
2022-10-02T17:28:08.387Z,15.50
2022-10-02T17:35:18.636Z,15.30
2022-10-02T17:42:47.649Z,15.30
2022-10-02T17:50:06.776Z,15.10
2022-10-02T17:57:27.452Z,15.00
2022-10-02T18:04:59.122Z,14.90
2022-10-02T18:12:31.422Z,14.80
2022-10-02T18:19:50.269Z,14.60
2022-10-02T18:27:32.617Z,14.50
2022-10-02T18:35:03.973Z,14.40
2022-10-02T18:42:40.841Z,14.30
2022-10-02T18:50:29.271Z,14.20
2022-10-02T18:57:56.554Z,14.10
2022-10-02T19:05:19.310Z,14.00
2022-10-02T19:12:24.167Z,13.90
2022-10-02T19:19:26.491Z,13.80
2022-10-02T19:26:33.016Z,13.60
2022-10-02T19:33:42.053Z,13.60
2022-10-02T19:40:42.572Z,13.40
2022-10-02T19:47:48.327Z,13.30
2022-10-02T19:54:48.542Z,13.10
2022-10-02T20:01:54.241Z,13.00
2022-10-02T20:09:05.735Z,12.90
2022-10-02T20:16:39.644Z,12.80
2022-10-02T20:23:42.275Z,12.60
2022-10-02T20:30:47.826Z,12.50
2022-10-02T20:37:50.888Z,12.50
2022-10-02T20:44:51.102Z,12.40
2022-10-02T20:52:15.925Z,12.30
2022-10-02T21:00:03.492Z,12.30
2022-10-02T21:07:21.659Z,12.20
2022-10-02T21:14:44.608Z,12.10
2022-10-02T21:22:10.583Z,12.00
2022-10-02T21:29:53.036Z,11.90
2022-10-02T21:37:04.773Z,11.80
2022-10-02T21:44:27.810Z,11.70
2022-10-02T21:51:40.796Z,11.60
2022-10-02T21:58:50.372Z,11.50
2022-10-02T22:06:05.224Z,11.30
2022-10-02T22:13:37.810Z,11.10
2022-10-02T22:20:59.220Z,10.90
2022-10-02T22:28:09.792Z,10.80
2022-10-02T22:35:20.966Z,10.60
2022-10-02T22:42:37.218Z,10.40
2022-10-02T22:49:50.227Z,10.30
2022-10-02T22:57:22.721Z,10.20
2022-10-02T23:04:47.484Z,10.10
2022-10-02T23:12:10.917Z,9.90
2022-10-02T23:19:27.829Z,9.80
2022-10-02T23:26:46.620Z,9.70
2022-10-02T23:33:56.743Z,9.60
2022-10-02T23:41:39.211Z,9.50
2022-10-02T23:48:39.655Z,9.40
2022-10-02T23:56:15.016Z,9.30
